createdAt,value
2023-02-24T00:02:49.498Z,100410.75
2023-02-24T00:05:52.339Z,100405.44
2023-02-24T00:08:55.350Z,100411.50
2023-02-24T00:11:59.820Z,100398.53
2023-02-24T00:15:06.672Z,100404.59
2023-02-24T00:18:09.674Z,100395.88
2023-02-24T00:21:15.805Z,100400.16
2023-02-24T00:24:21.865Z,100394.97
2023-02-24T00:27:25.038Z,100385.34
2023-02-24T00:30:29.796Z,100380.09
2023-02-24T00:33:34.258Z,100378.31
2023-02-24T00:36:37.317Z,100372.25
2023-02-24T00:39:44.263Z,100371.44
2023-02-24T00:42:48.617Z,100366.16
2023-02-24T00:45:51.633Z,100369.50
2023-02-24T00:48:59.769Z,100364.12
2023-02-24T00:52:06.705Z,100358.94
2023-02-24T00:55:14.077Z,100361.38
2023-02-24T00:58:19.868Z,100351.00
2023-02-24T01:01:28.138Z,100344.94
2023-02-24T01:04:31.284Z,100348.41
2023-02-24T01:07:35.010Z,100341.47
2023-02-24T01:10:40.214Z,100341.53
2023-02-24T01:13:44.358Z,100330.19
2023-02-24T01:16:50.492Z,100331.91
2023-02-24T01:19:55.113Z,100317.22
2023-02-24T01:22:58.687Z,100311.16
2023-02-24T01:26:03.237Z,100303.25
2023-02-24T01:29:10.748Z,100291.91
2023-02-24T01:32:19.008Z,100289.25
2023-02-24T01:35:21.964Z,100289.88
2023-02-24T01:38:25.408Z,100283.88
2023-02-24T01:41:30.875Z,100278.69
2023-02-24T01:44:33.860Z,100275.25
2023-02-24T01:47:38.691Z,100268.44
2023-02-24T01:50:42.200Z,100265.78
2023-02-24T01:53:46.398Z,100267.56
2023-02-24T01:56:52.856Z,100259.56
2023-02-24T02:00:02.395Z,100261.34
2023-02-24T02:03:16.378Z,100266.66
2023-02-24T02:06:19.151Z,100258.00
2023-02-24T02:09:23.578Z,100257.94
2023-02-24T02:12:29.090Z,100247.44
2023-02-24T02:15:39.697Z,100245.53
2023-02-24T02:18:56.481Z,100249.75
2023-02-24T02:22:26.706Z,100244.44
2023-02-24T02:25:57.634Z,100237.47
2023-02-24T02:29:38.234Z,100238.28
2023-02-24T02:33:21.653Z,100233.03
2023-02-24T02:36:34.932Z,100230.53
2023-02-24T02:39:58.993Z,100217.41
2023-02-24T02:43:11.660Z,100226.16
2023-02-24T02:46:34.892Z,100227.84
2023-02-24T02:49:45.456Z,100218.44
2023-02-24T02:53:04.164Z,100212.25
2023-02-24T02:56:20.087Z,100215.09
2023-02-24T02:59:29.586Z,100209.84
2023-02-24T03:02:38.402Z,100204.66
2023-02-24T03:06:01.644Z,100198.72
2023-02-24T03:09:35.993Z,100201.38
2023-02-24T03:12:41.869Z,100192.91
2023-02-24T03:15:48.728Z,100190.31
2023-02-24T03:19:03.887Z,100203.28
2023-02-24T03:22:24.854Z,100196.31
2023-02-24T03:25:38.329Z,100193.78
2023-02-24T03:29:00.987Z,100202.25
2023-02-24T03:32:33.520Z,100201.31
2023-02-24T03:35:42.832Z,100190.94
2023-02-24T03:38:49.515Z,100195.25
2023-02-24T03:41:58.929Z,100188.16
2023-02-24T03:45:06.777Z,100189.78
2023-02-24T03:48:12.290Z,100182.78
2023-02-24T03:51:19.527Z,100191.25
2023-02-24T03:54:49.948Z,100181.78
2023-02-24T03:58:18.043Z,100189.56
2023-02-24T04:01:42.877Z,100176.47
2023-02-24T04:04:59.125Z,100171.34
2023-02-24T04:08:07.230Z,100175.50
2023-02-24T04:11:21.389Z,100163.50
2023-02-24T04:14:34.950Z,100167.94
2023-02-24T04:17:48.743Z,100155.78
2023-02-24T04:20:53.531Z,100154.03
2023-02-24T04:24:01.358Z,100146.25
2023-02-24T04:27:08.351Z,100145.44
2023-02-24T04:30:14.229Z,100140.19
2023-02-24T04:33:20.630Z,100130.62
2023-02-24T04:36:26.900Z,100120.12
2023-02-24T04:39:31.848Z,100125.50
2023-02-24T04:42:46.711Z,100121.16
2023-02-24T04:45:51.544Z,100109.62
2023-02-24T04:48:57.425Z,100105.34
2023-02-24T04:52:00.534Z,100100.66
2023-02-24T04:55:10.442Z,100098.13
2023-02-24T04:58:22.905Z,100097.03
2023-02-24T05:01:27.239Z,100090.91
2023-02-24T05:04:36.075Z,100083.88
2023-02-24T05:07:39.722Z,100094.13
2023-02-24T05:10:46.753Z,100090.66
2023-02-24T05:13:51.420Z,100085.47
2023-02-24T05:17:00.168Z,100072.38
2023-02-24T05:20:24.804Z,100080.91
2023-02-24T05:23:36.230Z,100082.62
2023-02-24T05:26:42.679Z,100075.66
2023-02-24T05:29:45.765Z,100075.59
2023-02-24T05:32:55.836Z,100075.53
2023-02-24T05:36:05.780Z,100070.28
2023-02-24T05:39:21.608Z,100078.88
2023-02-24T05:42:27.888Z,100070.09
2023-02-24T05:45:31.529Z,100077.84
2023-02-24T05:48:36.717Z,100075.25
2023-02-24T05:51:54.971Z,100081.34
2023-02-24T05:55:01.005Z,100070.97
2023-02-24T05:58:08.723Z,100072.75
2023-02-24T06:01:25.214Z,100067.56
2023-02-24T06:04:45.947Z,100075.41
2023-02-24T06:07:49.353Z,100073.69
2023-02-24T06:11:00.691Z,100072.00
2023-02-24T06:14:16.914Z,100077.22
2023-02-24T06:17:24.546Z,100074.66
2023-02-24T06:20:33.436Z,100071.31
2023-02-24T06:23:38.245Z,100073.00
2023-02-24T06:26:50.291Z,100067.69
2023-02-24T06:29:57.777Z,100075.66
2023-02-24T06:33:02.735Z,100075.78
2023-02-24T06:36:09.743Z,100079.41
2023-02-24T06:39:17.166Z,100075.22
2023-02-24T06:42:22.058Z,100067.53
2023-02-24T06:45:26.705Z,100059.06
2023-02-24T06:48:33.837Z,100068.03
2023-02-24T06:51:37.108Z,100071.03
2023-02-24T06:54:42.689Z,100072.78
2023-02-24T06:57:50.074Z,100064.31
2023-02-24T07:00:57.043Z,100057.78
2023-02-24T07:04:09.794Z,100039.38
2023-02-24T07:07:14.841Z,100056.38
2023-02-24T07:10:24.834Z,100044.37
2023-02-24T07:13:30.960Z,100051.50
2023-02-24T07:16:43.769Z,100044.03
2023-02-24T07:19:48.154Z,100040.97
2023-02-24T07:22:52.894Z,100043.87
2023-02-24T07:26:01.332Z,100040.87
2023-02-24T07:29:07.504Z,100039.41
2023-02-24T07:32:14.141Z,100037.72
2023-02-24T07:35:17.902Z,100020.84
2023-02-24T07:38:23.101Z,100023.22
2023-02-24T07:41:26.827Z,100024.19
2023-02-24T07:44:31.057Z,100006.78
2023-02-24T07:47:35.936Z,100005.69
2023-02-24T07:50:42.774Z,100004.59
2023-02-24T07:54:06.780Z,100004.72
2023-02-24T07:57:15.262Z,100007.47
2023-02-24T08:00:31.782Z,100001.59
2023-02-24T08:03:41.362Z,100002.56
2023-02-24T08:06:47.934Z,100003.28
2023-02-24T08:10:11.706Z,99994.06
2023-02-24T08:13:15.905Z,99988.94
2023-02-24T08:16:24.742Z,99985.34
2023-02-24T08:19:40.000Z,99987.94
2023-02-24T08:22:47.273Z,99990.06
2023-02-24T08:25:50.720Z,99987.06
2023-02-24T08:28:54.806Z,99980.44
2023-02-24T08:31:59.412Z,99985.53
2023-02-24T08:35:37.305Z,99978.53
2023-02-24T08:38:40.373Z,99970.84
2023-02-24T08:41:51.285Z,99973.13
2023-02-24T08:44:53.866Z,99975.06
2023-02-24T08:48:18.361Z,99977.31
2023-02-24T08:51:35.188Z,99964.88
2023-02-24T08:54:48.206Z,99957.13
2023-02-24T08:57:56.856Z,99954.72
2023-02-24T09:01:04.714Z,99943.62
2023-02-24T09:04:19.194Z,99947.50
2023-02-24T09:07:44.684Z,99934.25
2023-02-24T09:10:55.765Z,99928.59
2023-02-24T09:14:01.483Z,99933.09
2023-02-24T09:17:11.760Z,99924.13
2023-02-24T09:20:26.737Z,99927.34
2023-02-24T09:23:46.173Z,99920.38
2023-02-24T09:27:02.652Z,99919.88
2023-02-24T09:30:26.736Z,99918.88
2023-02-24T09:33:41.362Z,99908.38
2023-02-24T09:36:45.332Z,99894.41
2023-02-24T09:39:56.673Z,99896.75
2023-02-24T09:43:00.132Z,99874.97
2023-02-24T09:46:15.174Z,99892.69
2023-02-24T09:49:18.672Z,99892.72
2023-02-24T09:52:39.955Z,99895.34
2023-02-24T09:56:06.108Z,99892.69
2023-02-24T09:59:20.909Z,99886.50
2023-02-24T10:03:00.420Z,99892.66
2023-02-24T10:06:14.785Z,99890.81
2023-02-24T10:09:34.739Z,99880.78
2023-02-24T10:12:41.752Z,99873.81
2023-02-24T10:15:57.829Z,99871.50
2023-02-24T10:19:16.860Z,99867.06
2023-02-24T10:23:01.757Z,99866.22
2023-02-24T10:26:33.606Z,99861.94
2023-02-24T10:29:45.972Z,99840.03
2023-02-24T10:33:05.537Z,99838.84
2023-02-24T10:36:18.735Z,99835.06
2023-02-24T10:39:33.411Z,99821.47
2023-02-24T10:42:48.546Z,99813.72
2023-02-24T10:46:06.335Z,99809.72
2023-02-24T10:49:16.859Z,99806.25
2023-02-24T10:52:53.666Z,99801.13
2023-02-24T10:56:22.908Z,99789.19
2023-02-24T11:00:04.616Z,99779.31
2023-02-24T11:03:21.966Z,99770.44
2023-02-24T11:06:43.483Z,99765.91
2023-02-24T11:09:52.938Z,99766.75
2023-02-24T11:13:24.207Z,99758.91
2023-02-24T11:17:04.696Z,99756.09
2023-02-24T11:20:47.858Z,99749.06
2023-02-24T11:24:02.906Z,99744.59
2023-02-24T11:27:10.908Z,99740.25
2023-02-24T11:30:24.720Z,99733.50
2023-02-24T11:34:04.685Z,99725.78
2023-02-24T11:37:16.403Z,99717.94
2023-02-24T11:40:26.762Z,99718.06
2023-02-24T11:43:39.597Z,99715.47
2023-02-24T11:47:03.834Z,99708.41
2023-02-24T11:50:22.718Z,99712.88
2023-02-24T11:53:41.771Z,99711.09
2023-02-24T11:56:56.221Z,99705.84
2023-02-24T12:00:34.639Z,99697.09
2023-02-24T12:04:01.442Z,99688.31
2023-02-24T12:07:54.639Z,99684.84
2023-02-24T12:11:11.750Z,99669.94
2023-02-24T12:14:35.705Z,99667.25
2023-02-24T12:18:10.669Z,99659.41
2023-02-24T12:21:34.620Z,99657.63
2023-02-24T12:24:43.665Z,99663.78
2023-02-24T12:28:31.654Z,99645.38
2023-02-24T12:31:57.971Z,99641.00
2023-02-24T12:35:10.322Z,99641.88
2023-02-24T12:38:29.016Z,99638.38
2023-02-24T12:41:49.385Z,99639.25
2023-02-24T12:45:05.713Z,99628.75
2023-02-24T12:48:29.695Z,99627.00
2023-02-24T12:51:46.195Z,99626.06
2023-02-24T12:55:21.985Z,99617.31
2023-02-24T12:58:36.425Z,99609.41
2023-02-24T13:02:05.971Z,99616.41
2023-02-24T13:05:24.964Z,99611.16
2023-02-24T13:08:51.927Z,99600.62
2023-02-24T13:12:09.822Z,99593.56
2023-02-24T13:15:22.124Z,99590.06
2023-02-24T13:18:36.630Z,99590.94
2023-02-24T13:21:41.213Z,99583.94
2023-02-24T13:25:14.780Z,99579.50
2023-02-24T13:28:27.981Z,99584.88
2023-02-24T13:32:01.933Z,99574.37
2023-02-24T13:35:14.909Z,99567.37
2023-02-24T13:38:27.846Z,99563.91
2023-02-24T13:41:41.134Z,99562.12
2023-02-24T13:44:54.772Z,99563.88
2023-02-24T13:48:19.721Z,99549.88
2023-02-24T13:51:48.019Z,99552.50
2023-02-24T13:55:42.774Z,99538.50
2023-02-24T13:58:58.142Z,99538.50
2023-02-24T14:02:18.165Z,99532.31
2023-02-24T14:05:33.453Z,99531.44
2023-02-24T14:08:51.758Z,99527.06
2023-02-24T14:12:04.275Z,99518.31
2023-02-24T14:15:24.947Z,99520.03
2023-02-24T14:18:32.143Z,99514.75
2023-02-24T14:21:36.951Z,99506.84
2023-02-24T14:24:43.920Z,99505.94
2023-02-24T14:27:52.687Z,99506.78
2023-02-24T14:31:08.894Z,99504.16
2023-02-24T14:34:19.998Z,99491.03
2023-02-24T14:37:29.872Z,99495.41
2023-02-24T14:40:36.898Z,99488.38
2023-02-24T14:43:44.129Z,99482.22
2023-02-24T14:46:57.420Z,99476.09
2023-02-24T14:50:07.020Z,99477.84
2023-02-24T14:53:24.627Z,99466.44
2023-02-24T14:56:39.785Z,99464.66
2023-02-24T15:00:11.007Z,99464.62
2023-02-24T15:03:31.983Z,99462.00
2023-02-24T15:06:46.014Z,99455.84
2023-02-24T15:09:52.064Z,99454.09
2023-02-24T15:13:16.932Z,99448.78
2023-02-24T15:16:47.421Z,99444.41
2023-02-24T15:19:59.052Z,99428.59
2023-02-24T15:23:08.107Z,99434.69
2023-02-24T15:26:26.294Z,99431.19
2023-02-24T15:29:37.136Z,99423.31
2023-02-24T15:32:41.725Z,99421.50
2023-02-24T15:35:55.850Z,99423.25
2023-02-24T15:39:06.963Z,99421.50
2023-02-24T15:42:16.672Z,99422.34
2023-02-24T15:45:29.753Z,99419.72
2023-02-24T15:48:36.189Z,99417.06
2023-02-24T15:51:51.647Z,99403.91
2023-02-24T15:54:55.156Z,99419.56
2023-02-24T15:58:00.893Z,99415.97
2023-02-24T16:01:13.333Z,99414.13
2023-02-24T16:04:27.980Z,99407.91
2023-02-24T16:07:37.866Z,99408.75
2023-02-24T16:10:42.177Z,99405.16
2023-02-24T16:13:53.660Z,99399.91
2023-02-24T16:17:09.022Z,99411.22
2023-02-24T16:20:31.702Z,99394.59
2023-02-24T16:23:42.670Z,99403.28
2023-02-24T16:26:47.848Z,99397.06
2023-02-24T16:29:54.674Z,99390.84
2023-02-24T16:33:01.323Z,99383.00
2023-02-24T16:36:12.892Z,99380.41
2023-02-24T16:39:17.892Z,99363.72
2023-02-24T16:42:24.932Z,99374.09
2023-02-24T16:45:34.554Z,99367.87
2023-02-24T16:48:54.873Z,99366.00
2023-02-24T16:52:02.721Z,99358.03
2023-02-24T16:55:09.032Z,99342.38
2023-02-24T16:58:15.912Z,99347.63
2023-02-24T17:01:32.753Z,99351.03
2023-02-24T17:04:49.928Z,99344.84
2023-02-24T17:08:00.081Z,99334.34
2023-02-24T17:11:03.799Z,99339.50
2023-02-24T17:14:20.907Z,99336.06
2023-02-24T17:17:31.769Z,99329.03
2023-02-24T17:20:43.870Z,99336.78
2023-02-24T17:23:51.628Z,99324.38
2023-02-24T17:27:02.742Z,99336.50
2023-02-24T17:30:13.383Z,99326.06
2023-02-24T17:33:19.300Z,99324.25
2023-02-24T17:36:39.655Z,99322.53
2023-02-24T17:39:56.587Z,99318.97
2023-02-24T17:43:09.671Z,99308.50
2023-02-24T17:46:13.263Z,99309.47
2023-02-24T17:49:17.342Z,99314.69
2023-02-24T17:52:24.922Z,99312.12
2023-02-24T17:56:01.814Z,99307.09
2023-02-24T17:59:06.747Z,99310.50
2023-02-24T18:02:21.745Z,99299.22
2023-02-24T18:05:33.829Z,99305.34
2023-02-24T18:08:39.754Z,99307.87
2023-02-24T18:11:49.760Z,99303.44
2023-02-24T18:15:07.504Z,99303.34
2023-02-24T18:18:11.697Z,99302.38
2023-02-24T18:21:18.648Z,99304.91
2023-02-24T18:24:27.967Z,99295.16
2023-02-24T18:27:37.229Z,99292.37
2023-02-24T18:30:40.838Z,99288.69
2023-02-24T18:33:46.348Z,99279.88
2023-02-24T18:36:50.465Z,99281.44
2023-02-24T18:39:54.148Z,99280.31
2023-02-24T18:43:01.970Z,99281.09
2023-02-24T18:46:13.509Z,99277.47
2023-02-24T18:49:25.688Z,99269.94
2023-02-24T18:52:37.504Z,99264.91
2023-02-24T18:55:52.612Z,99258.94
2023-02-24T18:58:59.751Z,99270.37
2023-02-24T19:02:34.591Z,99263.34
2023-02-24T19:05:40.661Z,99266.75
2023-02-24T19:08:46.250Z,99262.97
2023-02-24T19:11:54.301Z,99262.09
2023-02-24T19:15:03.646Z,99261.19
2023-02-24T19:18:18.706Z,99254.28
2023-02-24T19:21:31.325Z,99252.44
2023-02-24T19:24:48.619Z,99245.44
2023-02-24T19:27:57.730Z,99247.00
2023-02-24T19:31:04.013Z,99244.47
2023-02-24T19:34:28.588Z,99235.59
2023-02-24T19:37:40.122Z,99218.81
2023-02-24T19:40:46.686Z,99226.69
2023-02-24T19:43:51.739Z,99224.84
2023-02-24T19:46:59.773Z,99230.13
2023-02-24T19:50:15.971Z,99231.06
2023-02-24T19:53:22.673Z,99226.59
2023-02-24T19:56:39.652Z,99217.84
2023-02-24T19:59:53.710Z,99216.84
2023-02-24T20:03:06.040Z,99199.25
2023-02-24T20:06:26.715Z,99194.75
2023-02-24T20:09:30.703Z,99194.47
2023-02-24T20:12:45.874Z,99206.47
2023-02-24T20:15:52.031Z,99188.91
2023-02-24T20:19:15.717Z,99196.62
2023-02-24T20:22:36.153Z,99192.06
2023-02-24T20:25:55.838Z,99187.41
2023-02-24T20:29:17.635Z,99189.78
2023-02-24T20:32:24.055Z,99192.19
2023-02-24T20:35:28.563Z,99187.59
2023-02-24T20:38:34.745Z,99182.19
2023-02-24T20:41:43.727Z,99168.84
2023-02-24T20:45:02.610Z,99175.00
2023-02-24T20:48:21.592Z,99167.03
2023-02-24T20:51:26.290Z,99167.06
2023-02-24T20:54:29.694Z,99159.91
2023-02-24T20:57:41.573Z,99152.78
2023-02-24T21:00:46.086Z,99161.41
2023-02-24T21:03:51.893Z,99157.75
2023-02-24T21:07:00.758Z,99142.84
2023-02-24T21:10:05.440Z,99156.66
2023-02-24T21:13:21.749Z,99132.00
2023-02-24T21:16:32.268Z,99120.62
2023-02-24T21:19:37.664Z,99144.22
2023-02-24T21:22:42.203Z,99120.62
2023-02-24T21:25:54.132Z,99129.41
2023-02-24T21:29:04.763Z,99120.09
2023-02-24T21:32:25.200Z,99126.53
2023-02-24T21:35:29.236Z,99121.38
2023-02-24T21:38:36.123Z,99116.06
2023-02-24T21:41:44.653Z,99113.38
2023-02-24T21:44:51.233Z,99120.19
2023-02-24T21:48:01.833Z,99114.09
2023-02-24T21:51:09.909Z,99116.50
2023-02-24T21:54:14.375Z,99103.31
2023-02-24T21:57:17.637Z,99104.88
2023-02-24T22:00:21.671Z,99087.56
2023-02-24T22:03:26.424Z,99086.22
2023-02-24T22:06:36.709Z,99083.72
2023-02-24T22:09:44.975Z,99077.72
2023-02-24T22:12:48.809Z,99063.75
2023-02-24T22:15:51.963Z,99069.66
2023-02-24T22:18:55.931Z,99076.53
2023-02-24T22:22:00.961Z,99087.66
2023-02-24T22:25:06.784Z,99094.44
2023-02-24T22:28:10.642Z,99071.69
2023-02-24T22:31:17.971Z,99076.75
2023-02-24T22:34:21.414Z,99087.75
2023-02-24T22:37:25.355Z,99081.50
2023-02-24T22:40:33.687Z,99080.44
2023-02-24T22:43:37.070Z,99075.09
2023-02-24T22:46:40.422Z,99066.47
2023-02-24T22:49:44.085Z,99074.38
2023-02-24T22:52:49.052Z,99068.63
2023-02-24T22:55:56.823Z,99050.50
2023-02-24T22:59:01.093Z,99052.06
2023-02-24T23:02:05.178Z,99053.69
2023-02-24T23:05:12.710Z,99052.53
2023-02-24T23:08:24.879Z,99048.87
2023-02-24T23:11:32.832Z,99022.50
2023-02-24T23:14:38.566Z,99029.59
2023-02-24T23:17:41.897Z,99022.22
2023-02-24T23:20:49.023Z,99013.75
2023-02-24T23:23:57.474Z,99007.00
2023-02-24T23:27:01.170Z,98999.47
2023-02-24T23:30:08.236Z,98984.72
2023-02-24T23:33:11.279Z,99003.16
2023-02-24T23:36:15.502Z,99002.37
2023-02-24T23:39:23.129Z,98996.34
2023-02-24T23:42:26.509Z,98992.88
2023-02-24T23:45:31.279Z,98991.25
2023-02-24T23:48:35.758Z,98978.22
2023-02-24T23:51:48.021Z,98980.91
2023-02-24T23:54:52.867Z,98979.13
2023-02-24T23:57:55.974Z,98934.47
